sensor_id;sensor_type;location;lat;lon;timestamp;P1;durP1;ratioP1;P2;durP2;ratioP2
10910;SDS011;5508;49.150;11.030;2023-12-04T00:00:32;25.43;;;17.03;;
10910;SDS011;5508;49.150;11.030;2023-12-04T00:03:33;26.23;;;16.90;;
10910;SDS011;5508;49.150;11.030;2023-12-04T00:06:33;28.43;;;17.10;;
10910;SDS011;5508;49.150;11.030;2023-12-04T00:09:34;27.57;;;17.57;;
10910;SDS011;5508;49.150;11.030;2023-12-04T00:12:34;25.97;;;16.80;;
10910;SDS011;5508;49.150;11.030;2023-12-04T00:15:35;25.43;;;16.57;;
10910;SDS011;5508;49.150;11.030;2023-12-04T00:18:36;26.67;;;16.67;;
10910;SDS011;5508;49.150;11.030;2023-12-04T00:21:36;29.53;;;17.93;;
10910;SDS011;5508;49.150;11.030;2023-12-04T00:24:37;50.27;;;30.30;;
10910;SDS011;5508;49.150;11.030;2023-12-04T00:27:37;53.03;;;31.73;;
10910;SDS011;5508;49.150;11.030;2023-12-04T00:30:38;40.60;;;24.60;;
10910;SDS011;5508;49.150;11.030;2023-12-04T00:33:39;37.13;;;22.83;;
10910;SDS011;5508;49.150;11.030;2023-12-04T00:36:39;36.57;;;22.80;;
10910;SDS011;5508;49.150;11.030;2023-12-04T00:39:40;35.33;;;21.17;;
10910;SDS011;5508;49.150;11.030;2023-12-04T00:42:40;32.80;;;19.87;;
10910;SDS011;5508;49.150;11.030;2023-12-04T00:45:41;30.40;;;19.40;;
10910;SDS011;5508;49.150;11.030;2023-12-04T00:48:42;31.67;;;19.67;;
10910;SDS011;5508;49.150;11.030;2023-12-04T00:51:42;33.23;;;18.93;;
10910;SDS011;5508;49.150;11.030;2023-12-04T00:54:43;29.27;;;17.63;;
10910;SDS011;5508;49.150;11.030;2023-12-04T00:57:43;28.27;;;17.90;;
10910;SDS011;5508;49.150;11.030;2023-12-04T01:00:44;30.23;;;18.50;;
10910;SDS011;5508;49.150;11.030;2023-12-04T01:03:45;28.73;;;16.47;;
10910;SDS011;5508;49.150;11.030;2023-12-04T01:06:45;30.23;;;18.20;;
10910;SDS011;5508;49.150;11.030;2023-12-04T01:09:46;28.87;;;18.33;;
10910;SDS011;5508;49.150;11.030;2023-12-04T01:12:46;32.90;;;18.67;;
10910;SDS011;5508;49.150;11.030;2023-12-04T01:15:47;30.57;;;18.73;;
10910;SDS011;5508;49.150;11.030;2023-12-04T01:18:48;31.00;;;17.87;;
10910;SDS011;5508;49.150;11.030;2023-12-04T01:21:49;28.67;;;17.80;;
10910;SDS011;5508;49.150;11.030;2023-12-04T01:24:49;27.13;;;16.63;;
10910;SDS011;5508;49.150;11.030;2023-12-04T01:27:50;26.37;;;16.73;;
10910;SDS011;5508;49.150;11.030;2023-12-04T01:30:50;30.03;;;16.80;;
10910;SDS011;5508;49.150;11.030;2023-12-04T01:33:51;29.53;;;17.07;;
10910;SDS011;5508;49.150;11.030;2023-12-04T01:36:51;31.37;;;18.13;;
10910;SDS011;5508;49.150;11.030;2023-12-04T01:39:52;28.23;;;16.53;;
10910;SDS011;5508;49.150;11.030;2023-12-04T01:42:53;28.57;;;16.87;;
10910;SDS011;5508;49.150;11.030;2023-12-04T01:45:54;27.70;;;16.80;;
10910;SDS011;5508;49.150;11.030;2023-12-04T01:48:55;28.37;;;17.60;;
10910;SDS011;5508;49.150;11.030;2023-12-04T01:51:55;28.47;;;18.57;;
10910;SDS011;5508;49.150;11.030;2023-12-04T01:54:57;33.73;;;20.33;;
10910;SDS011;5508;49.150;11.030;2023-12-04T01:57:57;32.83;;;21.10;;
10910;SDS011;5508;49.150;11.030;2023-12-04T02:00:59;31.43;;;19.57;;
10910;SDS011;5508;49.150;11.030;2023-12-04T02:04:00;33.13;;;20.27;;
10910;SDS011;5508;49.150;11.030;2023-12-04T02:07:02;35.43;;;22.60;;
10910;SDS011;5508;49.150;11.030;2023-12-04T02:10:04;34.10;;;21.63;;
10910;SDS011;5508;49.150;11.030;2023-12-04T02:13:06;45.83;;;26.27;;
10910;SDS011;5508;49.150;11.030;2023-12-04T02:16:09;46.87;;;26.03;;
10910;SDS011;5508;49.150;11.030;2023-12-04T02:19:13;36.97;;;22.30;;
10910;SDS011;5508;49.150;11.030;2023-12-04T02:22:14;34.07;;;21.73;;
10910;SDS011;5508;49.150;11.030;2023-12-04T02:25:17;35.53;;;21.17;;
10910;SDS011;5508;49.150;11.030;2023-12-04T02:28:19;38.93;;;23.20;;
10910;SDS011;5508;49.150;11.030;2023-12-04T02:31:21;39.43;;;23.20;;
10910;SDS011;5508;49.150;11.030;2023-12-04T02:34:23;35.87;;;22.97;;
10910;SDS011;5508;49.150;11.030;2023-12-04T02:37:25;40.57;;;23.17;;
10910;SDS011;5508;49.150;11.030;2023-12-04T02:40:26;36.57;;;21.97;;
10910;SDS011;5508;49.150;11.030;2023-12-04T02:43:27;32.43;;;20.63;;
10910;SDS011;5508;49.150;11.030;2023-12-04T02:46:28;32.00;;;19.30;;
10910;SDS011;5508;49.150;11.030;2023-12-04T02:49:28;30.07;;;18.60;;
10910;SDS011;5508;49.150;11.030;2023-12-04T02:52:29;32.03;;;20.23;;
10910;SDS011;5508;49.150;11.030;2023-12-04T02:55:30;34.27;;;20.80;;
10910;SDS011;5508;49.150;11.030;2023-12-04T02:58:30;34.97;;;21.50;;
10910;SDS011;5508;49.150;11.030;2023-12-04T03:01:34;33.00;;;19.60;;
10910;SDS011;5508;49.150;11.030;2023-12-04T03:04:34;34.27;;;19.80;;
10910;SDS011;5508;49.150;11.030;2023-12-04T03:07:35;32.33;;;18.90;;
10910;SDS011;5508;49.150;11.030;2023-12-04T03:10:36;34.93;;;20.10;;
10910;SDS011;5508;49.150;11.030;2023-12-04T03:13:37;28.90;;;17.70;;
10910;SDS011;5508;49.150;11.030;2023-12-04T03:16:38;31.87;;;18.73;;
10910;SDS011;5508;49.150;11.030;2023-12-04T03:19:38;35.80;;;21.13;;
10910;SDS011;5508;49.150;11.030;2023-12-04T03:22:39;41.57;;;24.47;;
10910;SDS011;5508;49.150;11.030;2023-12-04T03:25:39;46.13;;;28.80;;
10910;SDS011;5508;49.150;11.030;2023-12-04T03:28:40;33.40;;;20.07;;
10910;SDS011;5508;49.150;11.030;2023-12-04T03:31:40;31.43;;;18.93;;
10910;SDS011;5508;49.150;11.030;2023-12-04T03:34:41;30.77;;;18.90;;
10910;SDS011;5508;49.150;11.030;2023-12-04T03:37:42;35.60;;;22.23;;
10910;SDS011;5508;49.150;11.030;2023-12-04T03:40:42;31.37;;;18.70;;
10910;SDS011;5508;49.150;11.030;2023-12-04T03:43:43;34.90;;;19.50;;
10910;SDS011;5508;49.150;11.030;2023-12-04T03:46:43;28.67;;;18.00;;
10910;SDS011;5508;49.150;11.030;2023-12-04T03:49:44;32.23;;;18.80;;
10910;SDS011;5508;49.150;11.030;2023-12-04T03:52:45;29.57;;;17.07;;
10910;SDS011;5508;49.150;11.030;2023-12-04T03:55:45;29.70;;;17.47;;
10910;SDS011;5508;49.150;11.030;2023-12-04T03:58:46;30.53;;;18.60;;
10910;SDS011;5508;49.150;11.030;2023-12-04T04:01:46;35.90;;;19.50;;
10910;SDS011;5508;49.150;11.030;2023-12-04T04:04:47;34.60;;;19.60;;
10910;SDS011;5508;49.150;11.030;2023-12-04T04:07:47;34.43;;;19.97;;
10910;SDS011;5508;49.150;11.030;2023-12-04T04:10:48;34.83;;;20.33;;
10910;SDS011;5508;49.150;11.030;2023-12-04T04:13:48;30.30;;;19.47;;
10910;SDS011;5508;49.150;11.030;2023-12-04T04:16:49;32.37;;;18.97;;
10910;SDS011;5508;49.150;11.030;2023-12-04T04:19:50;31.33;;;18.33;;
10910;SDS011;5508;49.150;11.030;2023-12-04T04:22:50;33.33;;;20.33;;
10910;SDS011;5508;49.150;11.030;2023-12-04T04:25:51;31.00;;;19.40;;
10910;SDS011;5508;49.150;11.030;2023-12-04T04:28:52;32.90;;;19.33;;
10910;SDS011;5508;49.150;11.030;2023-12-04T04:31:53;29.53;;;19.30;;
10910;SDS011;5508;49.150;11.030;2023-12-04T04:34:53;30.10;;;18.27;;
10910;SDS011;5508;49.150;11.030;2023-12-04T04:37:54;30.40;;;18.93;;
10910;SDS011;5508;49.150;11.030;2023-12-04T04:40:54;30.83;;;17.80;;
10910;SDS011;5508;49.150;11.030;2023-12-04T04:43:55;25.60;;;16.77;;
10910;SDS011;5508;49.150;11.030;2023-12-04T04:46:55;32.30;;;20.73;;
10910;SDS011;5508;49.150;11.030;2023-12-04T04:49:56;31.53;;;19.73;;
10910;SDS011;5508;49.150;11.030;2023-12-04T04:52:57;28.90;;;18.17;;
10910;SDS011;5508;49.150;11.030;2023-12-04T04:55:57;31.57;;;19.40;;
10910;SDS011;5508;49.150;11.030;2023-12-04T04:58:58;34.53;;;21.77;;
10910;SDS011;5508;49.150;11.030;2023-12-04T05:01:58;35.20;;;22.13;;
10910;SDS011;5508;49.150;11.030;2023-12-04T05:04:59;40.97;;;25.13;;
10910;SDS011;5508;49.150;11.030;2023-12-04T05:08:02;38.20;;;25.17;;
10910;SDS011;5508;49.150;11.030;2023-12-04T05:11:03;40.13;;;24.83;;
10910;SDS011;5508;49.150;11.030;2023-12-04T05:14:04;44.80;;;27.00;;
10910;SDS011;5508;49.150;11.030;2023-12-04T05:17:04;45.30;;;29.53;;
10910;SDS011;5508;49.150;11.030;2023-12-04T05:20:05;32.80;;;20.63;;
10910;SDS011;5508;49.150;11.030;2023-12-04T05:23:07;32.50;;;22.07;;
10910;SDS011;5508;49.150;11.030;2023-12-04T05:26:08;35.27;;;22.53;;
10910;SDS011;5508;49.150;11.030;2023-12-04T05:29:08;34.63;;;23.27;;
10910;SDS011;5508;49.150;11.030;2023-12-04T05:32:09;32.90;;;20.30;;
10910;SDS011;5508;49.150;11.030;2023-12-04T05:35:09;39.17;;;23.43;;
10910;SDS011;5508;49.150;11.030;2023-12-04T05:38:10;36.93;;;21.93;;
10910;SDS011;5508;49.150;11.030;2023-12-04T05:41:11;39.43;;;22.87;;
10910;SDS011;5508;49.150;11.030;2023-12-04T05:44:11;43.27;;;25.17;;
10910;SDS011;5508;49.150;11.030;2023-12-04T05:47:12;53.40;;;28.53;;
10910;SDS011;5508;49.150;11.030;2023-12-04T05:50:12;65.40;;;33.60;;
10910;SDS011;5508;49.150;11.030;2023-12-04T05:53:13;79.27;;;38.03;;
10910;SDS011;5508;49.150;11.030;2023-12-04T05:56:13;116.63;;;53.03;;
10910;SDS011;5508;49.150;11.030;2023-12-04T05:59:14;108.53;;;50.40;;
10910;SDS011;5508;49.150;11.030;2023-12-04T06:02:15;77.07;;;37.63;;
10910;SDS011;5508;49.150;11.030;2023-12-04T06:05:15;59.17;;;30.97;;
10910;SDS011;5508;49.150;11.030;2023-12-04T06:08:16;76.30;;;37.33;;
10910;SDS011;5508;49.150;11.030;2023-12-04T06:11:16;76.57;;;37.90;;
10910;SDS011;5508;49.150;11.030;2023-12-04T06:14:17;64.63;;;34.83;;
10910;SDS011;5508;49.150;11.030;2023-12-04T06:17:17;69.70;;;37.17;;
10910;SDS011;5508;49.150;11.030;2023-12-04T06:20:18;68.10;;;35.50;;
10910;SDS011;5508;49.150;11.030;2023-12-04T06:23:19;86.60;;;39.20;;
10910;SDS011;5508;49.150;11.030;2023-12-04T06:26:20;79.40;;;39.97;;
10910;SDS011;5508;49.150;11.030;2023-12-04T06:29:20;80.07;;;41.97;;
10910;SDS011;5508;49.150;11.030;2023-12-04T06:32:21;80.83;;;42.43;;
10910;SDS011;5508;49.150;11.030;2023-12-04T06:35:22;70.10;;;38.93;;
10910;SDS011;5508;49.150;11.030;2023-12-04T06:38:24;72.77;;;38.97;;
10910;SDS011;5508;49.150;11.030;2023-12-04T06:41:25;66.90;;;36.17;;
10910;SDS011;5508;49.150;11.030;2023-12-04T06:44:26;63.47;;;33.93;;
10910;SDS011;5508;49.150;11.030;2023-12-04T06:47:26;61.17;;;33.83;;
10910;SDS011;5508;49.150;11.030;2023-12-04T06:50:30;59.70;;;34.03;;
10910;SDS011;5508;49.150;11.030;2023-12-04T06:53:31;61.67;;;33.53;;
10910;SDS011;5508;49.150;11.030;2023-12-04T06:56:32;55.77;;;31.93;;
10910;SDS011;5508;49.150;11.030;2023-12-04T06:59:32;81.80;;;43.43;;
10910;SDS011;5508;49.150;11.030;2023-12-04T07:02:33;55.53;;;33.43;;
10910;SDS011;5508;49.150;11.030;2023-12-04T07:05:33;50.20;;;29.77;;
10910;SDS011;5508;49.150;11.030;2023-12-04T07:08:34;66.43;;;36.03;;
10910;SDS011;5508;49.150;11.030;2023-12-04T07:11:34;44.17;;;26.60;;
10910;SDS011;5508;49.150;11.030;2023-12-04T07:14:35;34.53;;;21.80;;
10910;SDS011;5508;49.150;11.030;2023-12-04T07:17:36;29.20;;;19.40;;
10910;SDS011;5508;49.150;11.030;2023-12-04T07:20:37;35.83;;;22.40;;
10910;SDS011;5508;49.150;11.030;2023-12-04T07:23:37;27.07;;;16.07;;
10910;SDS011;5508;49.150;11.030;2023-12-04T07:26:38;53.03;;;29.43;;
10910;SDS011;5508;49.150;11.030;2023-12-04T07:29:39;40.70;;;25.87;;
10910;SDS011;5508;49.150;11.030;2023-12-04T07:32:39;30.33;;;19.70;;
10910;SDS011;5508;49.150;11.030;2023-12-04T07:35:40;26.87;;;19.33;;
10910;SDS011;5508;49.150;11.030;2023-12-04T07:38:40;28.17;;;18.67;;
10910;SDS011;5508;49.150;11.030;2023-12-04T07:41:41;25.30;;;16.73;;
10910;SDS011;5508;49.150;11.030;2023-12-04T07:44:42;26.93;;;18.33;;
10910;SDS011;5508;49.150;11.030;2023-12-04T07:47:42;34.03;;;19.23;;
10910;SDS011;5508;49.150;11.030;2023-12-04T07:50:43;49.87;;;27.67;;
10910;SDS011;5508;49.150;11.030;2023-12-04T07:53:43;45.30;;;26.73;;
10910;SDS011;5508;49.150;11.030;2023-12-04T07:56:44;33.90;;;22.13;;
10910;SDS011;5508;49.150;11.030;2023-12-04T07:59:45;30.87;;;19.93;;
10910;SDS011;5508;49.150;11.030;2023-12-04T08:02:45;30.27;;;20.27;;
10910;SDS011;5508;49.150;11.030;2023-12-04T08:05:46;78.13;;;40.70;;
10910;SDS011;5508;49.150;11.030;2023-12-04T08:08:47;47.80;;;27.17;;
10910;SDS011;5508;49.150;11.030;2023-12-04T08:11:47;40.33;;;24.80;;
10910;SDS011;5508;49.150;11.030;2023-12-04T08:14:48;33.47;;;22.07;;
10910;SDS011;5508;49.150;11.030;2023-12-04T08:17:49;30.17;;;19.33;;
10910;SDS011;5508;49.150;11.030;2023-12-04T08:20:49;25.10;;;15.20;;
10910;SDS011;5508;49.150;11.030;2023-12-04T08:23:50;23.67;;;15.33;;
10910;SDS011;5508;49.150;11.030;2023-12-04T08:26:50;24.23;;;15.20;;
10910;SDS011;5508;49.150;11.030;2023-12-04T08:29:51;20.33;;;14.00;;
10910;SDS011;5508;49.150;11.030;2023-12-04T08:32:51;17.53;;;11.20;;
10910;SDS011;5508;49.150;11.030;2023-12-04T08:35:52;15.47;;;10.80;;
10910;SDS011;5508;49.150;11.030;2023-12-04T08:38:53;14.53;;;10.27;;
10910;SDS011;5508;49.150;11.030;2023-12-04T08:41:53;24.73;;;14.53;;
10910;SDS011;5508;49.150;11.030;2023-12-04T08:44:54;13.77;;;8.87;;
10910;SDS011;5508;49.150;11.030;2023-12-04T08:47:54;14.07;;;10.17;;
10910;SDS011;5508;49.150;11.030;2023-12-04T08:50:55;13.47;;;9.73;;
10910;SDS011;5508;49.150;11.030;2023-12-04T08:53:56;16.27;;;10.47;;
10910;SDS011;5508;49.150;11.030;2023-12-04T08:56:57;12.23;;;9.43;;
10910;SDS011;5508;49.150;11.030;2023-12-04T08:59:57;13.60;;;9.73;;
10910;SDS011;5508;49.150;11.030;2023-12-04T09:02:59;17.47;;;10.73;;
10910;SDS011;5508;49.150;11.030;2023-12-04T09:06:00;14.60;;;10.10;;
10910;SDS011;5508;49.150;11.030;2023-12-04T09:09:01;16.17;;;11.47;;
10910;SDS011;5508;49.150;11.030;2023-12-04T09:12:02;16.30;;;11.47;;
10910;SDS011;5508;49.150;11.030;2023-12-04T09:15:04;15.70;;;10.60;;
10910;SDS011;5508;49.150;11.030;2023-12-04T09:18:05;14.33;;;9.97;;
10910;SDS011;5508;49.150;11.030;2023-12-04T09:21:06;13.20;;;10.13;;
10910;SDS011;5508;49.150;11.030;2023-12-04T09:24:08;12.93;;;9.80;;
10910;SDS011;5508;49.150;11.030;2023-12-04T09:27:08;12.37;;;9.37;;
10910;SDS011;5508;49.150;11.030;2023-12-04T09:30:09;46.63;;;28.90;;
10910;SDS011;5508;49.150;11.030;2023-12-04T09:33:10;15.53;;;10.73;;
10910;SDS011;5508;49.150;11.030;2023-12-04T09:36:10;13.20;;;8.33;;
10910;SDS011;5508;49.150;11.030;2023-12-04T09:39:11;12.33;;;8.37;;
10910;SDS011;5508;49.150;11.030;2023-12-04T09:42:12;11.80;;;8.13;;
10910;SDS011;5508;49.150;11.030;2023-12-04T09:45:13;11.63;;;8.40;;
10910;SDS011;5508;49.150;11.030;2023-12-04T09:48:15;12.43;;;8.80;;
10910;SDS011;5508;49.150;11.030;2023-12-04T09:51:16;13.13;;;9.50;;
10910;SDS011;5508;49.150;11.030;2023-12-04T09:54:18;13.50;;;9.13;;
10910;SDS011;5508;49.150;11.030;2023-12-04T09:57:19;11.67;;;8.87;;
10910;SDS011;5508;49.150;11.030;2023-12-04T10:00:23;12.07;;;8.83;;
10910;SDS011;5508;49.150;11.030;2023-12-04T10:03:24;12.37;;;8.70;;
10910;SDS011;5508;49.150;11.030;2023-12-04T10:06:28;12.70;;;8.77;;
10910;SDS011;5508;49.150;11.030;2023-12-04T10:09:29;11.53;;;8.27;;
10910;SDS011;5508;49.150;11.030;2023-12-04T10:12:30;13.47;;;8.40;;
10910;SDS011;5508;49.150;11.030;2023-12-04T10:15:31;10.63;;;8.13;;
10910;SDS011;5508;49.150;11.030;2023-12-04T10:18:33;11.07;;;8.60;;
10910;SDS011;5508;49.150;11.030;2023-12-04T10:21:34;12.73;;;9.20;;
10910;SDS011;5508;49.150;11.030;2023-12-04T10:24:35;13.00;;;8.90;;
10910;SDS011;5508;49.150;11.030;2023-12-04T10:27:39;12.90;;;9.37;;
10910;SDS011;5508;49.150;11.030;2023-12-04T10:30:40;12.27;;;8.27;;
10910;SDS011;5508;49.150;11.030;2023-12-04T10:33:41;13.00;;;9.83;;
10910;SDS011;5508;49.150;11.030;2023-12-04T10:36:41;16.33;;;10.53;;
10910;SDS011;5508;49.150;11.030;2023-12-04T10:39:49;12.63;;;9.00;;
10910;SDS011;5508;49.150;11.030;2023-12-04T10:42:51;11.83;;;9.00;;
10910;SDS011;5508;49.150;11.030;2023-12-04T10:46:09;10.93;;;8.57;;
10910;SDS011;5508;49.150;11.030;2023-12-04T10:49:10;10.83;;;8.57;;
10910;SDS011;5508;49.150;11.030;2023-12-04T10:52:12;12.33;;;9.27;;
10910;SDS011;5508;49.150;11.030;2023-12-04T10:55:12;10.77;;;7.70;;
10910;SDS011;5508;49.150;11.030;2023-12-04T10:58:13;14.53;;;9.13;;
10910;SDS011;5508;49.150;11.030;2023-12-04T11:01:15;13.00;;;9.00;;
10910;SDS011;5508;49.150;11.030;2023-12-04T11:04:19;27.60;;;16.63;;
10910;SDS011;5508;49.150;11.030;2023-12-04T11:07:23;13.70;;;10.30;;
10910;SDS011;5508;49.150;11.030;2023-12-04T11:10:27;11.43;;;8.90;;
10910;SDS011;5508;49.150;11.030;2023-12-04T11:13:31;12.00;;;8.77;;
10910;SDS011;5508;49.150;11.030;2023-12-04T11:16:35;11.70;;;8.93;;
10910;SDS011;5508;49.150;11.030;2023-12-04T11:19:55;12.77;;;9.37;;
10910;SDS011;5508;49.150;11.030;2023-12-04T11:23:00;12.60;;;8.53;;
10910;SDS011;5508;49.150;11.030;2023-12-04T11:26:03;11.70;;;8.50;;
10910;SDS011;5508;49.150;11.030;2023-12-04T11:29:05;12.87;;;9.40;;
10910;SDS011;5508;49.150;11.030;2023-12-04T11:32:06;18.33;;;12.60;;
10910;SDS011;5508;49.150;11.030;2023-12-04T11:35:07;10.90;;;8.63;;
10910;SDS011;5508;49.150;11.030;2023-12-04T11:38:14;14.73;;;10.63;;
10910;SDS011;5508;49.150;11.030;2023-12-04T11:41:19;14.87;;;10.40;;
10910;SDS011;5508;49.150;11.030;2023-12-04T11:44:20;15.73;;;11.10;;
10910;SDS011;5508;49.150;11.030;2023-12-04T11:47:22;11.93;;;9.70;;
10910;SDS011;5508;49.150;11.030;2023-12-04T11:50:26;14.53;;;9.90;;
10910;SDS011;5508;49.150;11.030;2023-12-04T11:53:27;12.27;;;9.10;;
10910;SDS011;5508;49.150;11.030;2023-12-04T11:56:27;11.80;;;9.07;;
10910;SDS011;5508;49.150;11.030;2023-12-04T11:59:28;13.43;;;9.50;;
10910;SDS011;5508;49.150;11.030;2023-12-04T12:02:28;12.13;;;9.03;;
10910;SDS011;5508;49.150;11.030;2023-12-04T12:05:30;12.73;;;9.50;;
10910;SDS011;5508;49.150;11.030;2023-12-04T12:08:33;12.87;;;9.67;;
10910;SDS011;5508;49.150;11.030;2023-12-04T12:11:34;11.50;;;8.13;;
10910;SDS011;5508;49.150;11.030;2023-12-04T12:14:34;11.17;;;8.80;;
10910;SDS011;5508;49.150;11.030;2023-12-04T12:17:35;12.33;;;8.87;;
10910;SDS011;5508;49.150;11.030;2023-12-04T12:20:39;16.83;;;8.63;;
10910;SDS011;5508;49.150;11.030;2023-12-04T12:23:40;14.13;;;10.63;;
10910;SDS011;5508;49.150;11.030;2023-12-04T12:26:41;13.77;;;10.10;;
10910;SDS011;5508;49.150;11.030;2023-12-04T12:29:41;17.73;;;11.67;;
10910;SDS011;5508;49.150;11.030;2023-12-04T12:32:43;21.47;;;15.27;;
10910;SDS011;5508;49.150;11.030;2023-12-04T12:35:43;11.17;;;8.83;;
10910;SDS011;5508;49.150;11.030;2023-12-04T12:38:44;15.00;;;10.20;;
10910;SDS011;5508;49.150;11.030;2023-12-04T12:41:50;26.93;;;17.50;;
10910;SDS011;5508;49.150;11.030;2023-12-04T12:44:50;13.43;;;9.93;;
10910;SDS011;5508;49.150;11.030;2023-12-04T12:47:51;23.00;;;14.43;;
10910;SDS011;5508;49.150;11.030;2023-12-04T12:50:51;24.33;;;13.73;;
10910;SDS011;5508;49.150;11.030;2023-12-04T12:53:52;14.60;;;9.67;;
10910;SDS011;5508;49.150;11.030;2023-12-04T12:56:53;13.53;;;9.43;;
10910;SDS011;5508;49.150;11.030;2023-12-04T12:59:53;11.67;;;8.67;;
10910;SDS011;5508;49.150;11.030;2023-12-04T13:02:54;10.23;;;8.27;;
10910;SDS011;5508;49.150;11.030;2023-12-04T13:05:54;10.80;;;8.27;;
10910;SDS011;5508;49.150;11.030;2023-12-04T13:08:55;11.87;;;9.13;;
10910;SDS011;5508;49.150;11.030;2023-12-04T13:11:56;10.40;;;7.90;;
10910;SDS011;5508;49.150;11.030;2023-12-04T13:14:56;11.23;;;8.33;;
10910;SDS011;5508;49.150;11.030;2023-12-04T13:17:57;11.37;;;8.00;;
10910;SDS011;5508;49.150;11.030;2023-12-04T13:20:57;12.57;;;10.00;;
10910;SDS011;5508;49.150;11.030;2023-12-04T13:23:58;11.57;;;9.63;;
10910;SDS011;5508;49.150;11.030;2023-12-04T13:26:59;10.50;;;8.43;;
10910;SDS011;5508;49.150;11.030;2023-12-04T13:29:59;11.07;;;8.40;;
10910;SDS011;5508;49.150;11.030;2023-12-04T13:33:00;14.37;;;9.17;;
10910;SDS011;5508;49.150;11.030;2023-12-04T13:36:01;11.97;;;8.57;;
10910;SDS011;5508;49.150;11.030;2023-12-04T13:39:01;13.00;;;9.03;;
10910;SDS011;5508;49.150;11.030;2023-12-04T13:42:04;10.83;;;8.13;;
10910;SDS011;5508;49.150;11.030;2023-12-04T13:45:23;11.17;;;8.57;;
10910;SDS011;5508;49.150;11.030;2023-12-04T13:48:24;12.37;;;9.00;;
10910;SDS011;5508;49.150;11.030;2023-12-04T13:51:24;12.53;;;9.67;;
10910;SDS011;5508;49.150;11.030;2023-12-04T13:54:28;12.67;;;9.63;;
10910;SDS011;5508;49.150;11.030;2023-12-04T13:57:43;12.87;;;8.67;;
10910;SDS011;5508;49.150;11.030;2023-12-04T14:00:56;12.53;;;9.20;;
10910;SDS011;5508;49.150;11.030;2023-12-04T14:03:57;11.17;;;8.73;;
10910;SDS011;5508;49.150;11.030;2023-12-04T14:07:01;13.43;;;10.40;;
10910;SDS011;5508;49.150;11.030;2023-12-04T14:10:02;13.03;;;10.43;;
10910;SDS011;5508;49.150;11.030;2023-12-04T14:13:03;15.43;;;10.53;;
10910;SDS011;5508;49.150;11.030;2023-12-04T14:16:04;13.13;;;9.80;;
10910;SDS011;5508;49.150;11.030;2023-12-04T14:19:05;11.87;;;7.97;;
10910;SDS011;5508;49.150;11.030;2023-12-04T14:22:06;12.13;;;9.23;;
10910;SDS011;5508;49.150;11.030;2023-12-04T14:25:06;14.07;;;9.93;;
10910;SDS011;5508;49.150;11.030;2023-12-04T14:28:07;12.67;;;9.50;;
10910;SDS011;5508;49.150;11.030;2023-12-04T14:31:08;12.77;;;9.10;;
10910;SDS011;5508;49.150;11.030;2023-12-04T14:34:08;12.70;;;9.03;;
10910;SDS011;5508;49.150;11.030;2023-12-04T14:37:09;12.43;;;9.57;;
10910;SDS011;5508;49.150;11.030;2023-12-04T14:40:12;14.00;;;9.57;;
10910;SDS011;5508;49.150;11.030;2023-12-04T14:43:14;12.77;;;9.53;;
10910;SDS011;5508;49.150;11.030;2023-12-04T14:46:14;14.60;;;9.90;;
10910;SDS011;5508;49.150;11.030;2023-12-04T14:49:16;14.13;;;9.57;;
10910;SDS011;5508;49.150;11.030;2023-12-04T14:52:17;17.93;;;10.37;;
10910;SDS011;5508;49.150;11.030;2023-12-04T14:55:18;13.03;;;10.30;;
10910;SDS011;5508;49.150;11.030;2023-12-04T14:58:25;16.00;;;11.43;;
10910;SDS011;5508;49.150;11.030;2023-12-04T15:01:28;20.93;;;13.00;;
10910;SDS011;5508;49.150;11.030;2023-12-04T15:04:48;21.57;;;13.73;;
10910;SDS011;5508;49.150;11.030;2023-12-04T15:08:14;19.13;;;12.37;;
10910;SDS011;5508;49.150;11.030;2023-12-04T15:11:18;17.73;;;13.33;;
10910;SDS011;5508;49.150;11.030;2023-12-04T15:14:37;18.27;;;13.60;;
10910;SDS011;5508;49.150;11.030;2023-12-04T15:17:49;15.80;;;11.23;;
10910;SDS011;5508;49.150;11.030;2023-12-04T15:21:00;18.20;;;12.50;;
10910;SDS011;5508;49.150;11.030;2023-12-04T15:24:01;17.70;;;11.00;;
10910;SDS011;5508;49.150;11.030;2023-12-04T15:27:02;14.57;;;10.93;;
10910;SDS011;5508;49.150;11.030;2023-12-04T15:30:04;17.30;;;11.70;;
10910;SDS011;5508;49.150;11.030;2023-12-04T15:33:06;15.17;;;11.63;;
10910;SDS011;5508;49.150;11.030;2023-12-04T15:36:07;20.27;;;11.70;;
10910;SDS011;5508;49.150;11.030;2023-12-04T15:39:10;15.90;;;10.70;;
10910;SDS011;5508;49.150;11.030;2023-12-04T15:42:11;18.97;;;13.13;;
10910;SDS011;5508;49.150;11.030;2023-12-04T15:45:12;16.63;;;11.47;;
10910;SDS011;5508;49.150;11.030;2023-12-04T15:48:13;18.57;;;11.47;;
10910;SDS011;5508;49.150;11.030;2023-12-04T15:51:13;14.53;;;11.30;;
10910;SDS011;5508;49.150;11.030;2023-12-04T15:54:14;15.83;;;12.03;;
10910;SDS011;5508;49.150;11.030;2023-12-04T15:57:14;16.10;;;12.30;;
10910;SDS011;5508;49.150;11.030;2023-12-04T16:00:16;21.70;;;15.37;;
10910;SDS011;5508;49.150;11.030;2023-12-04T16:03:17;18.80;;;14.37;;
10910;SDS011;5508;49.150;11.030;2023-12-04T16:06:18;18.00;;;12.33;;
10910;SDS011;5508;49.150;11.030;2023-12-04T16:09:18;29.27;;;15.27;;
10910;SDS011;5508;49.150;11.030;2023-12-04T16:12:19;22.33;;;13.83;;
10910;SDS011;5508;49.150;11.030;2023-12-04T16:15:19;17.03;;;12.07;;
10910;SDS011;5508;49.150;11.030;2023-12-04T16:18:20;20.00;;;13.07;;
10910;SDS011;5508;49.150;11.030;2023-12-04T16:21:20;20.10;;;12.67;;
10910;SDS011;5508;49.150;11.030;2023-12-04T16:24:22;23.47;;;17.57;;
10910;SDS011;5508;49.150;11.030;2023-12-04T16:27:23;23.30;;;17.73;;
10910;SDS011;5508;49.150;11.030;2023-12-04T16:30:24;25.33;;;19.27;;
10910;SDS011;5508;49.150;11.030;2023-12-04T16:33:25;21.83;;;13.47;;
10910;SDS011;5508;49.150;11.030;2023-12-04T16:36:26;19.33;;;13.90;;
10910;SDS011;5508;49.150;11.030;2023-12-04T16:39:27;20.53;;;11.80;;
10910;SDS011;5508;49.150;11.030;2023-12-04T16:42:28;16.67;;;11.83;;
10910;SDS011;5508;49.150;11.030;2023-12-04T16:45:29;17.43;;;12.10;;
10910;SDS011;5508;49.150;11.030;2023-12-04T16:48:29;17.57;;;12.63;;
10910;SDS011;5508;49.150;11.030;2023-12-04T16:51:30;18.43;;;13.03;;
10910;SDS011;5508;49.150;11.030;2023-12-04T16:54:30;19.43;;;13.23;;
10910;SDS011;5508;49.150;11.030;2023-12-04T16:57:31;17.90;;;13.27;;
10910;SDS011;5508;49.150;11.030;2023-12-04T17:00:32;19.00;;;12.63;;
10910;SDS011;5508;49.150;11.030;2023-12-04T17:03:33;21.33;;;13.80;;
10910;SDS011;5508;49.150;11.030;2023-12-04T17:06:34;28.50;;;18.17;;
10910;SDS011;5508;49.150;11.030;2023-12-04T17:09:34;47.07;;;27.50;;
10910;SDS011;5508;49.150;11.030;2023-12-04T17:12:37;28.30;;;18.77;;
10910;SDS011;5508;49.150;11.030;2023-12-04T17:15:44;24.83;;;16.70;;
10910;SDS011;5508;49.150;11.030;2023-12-04T17:18:44;23.17;;;16.80;;
10910;SDS011;5508;49.150;11.030;2023-12-04T17:21:45;16.83;;;11.77;;
10910;SDS011;5508;49.150;11.030;2023-12-04T17:24:45;17.30;;;12.23;;
10910;SDS011;5508;49.150;11.030;2023-12-04T17:27:46;13.77;;;10.73;;
10910;SDS011;5508;49.150;11.030;2023-12-04T17:30:46;14.80;;;11.10;;
10910;SDS011;5508;49.150;11.030;2023-12-04T17:33:47;16.47;;;11.57;;
10910;SDS011;5508;49.150;11.030;2023-12-04T17:36:48;14.47;;;10.77;;
10910;SDS011;5508;49.150;11.030;2023-12-04T17:39:48;17.13;;;12.17;;
10910;SDS011;5508;49.150;11.030;2023-12-04T17:42:49;18.53;;;12.90;;
10910;SDS011;5508;49.150;11.030;2023-12-04T17:45:50;18.80;;;13.13;;